createdAt,value
2022-08-21T00:01:47.594Z,11.13
2022-08-21T00:04:22.160Z,7.70
2022-08-21T00:06:52.135Z,9.48
2022-08-21T00:09:21.509Z,8.57
2022-08-21T00:11:50.247Z,10.35
2022-08-21T00:14:19.097Z,9.82
2022-08-21T00:16:47.250Z,9.88
2022-08-21T00:19:15.385Z,11.05
2022-08-21T00:21:44.292Z,8.63
2022-08-21T00:24:15.290Z,9.43
2022-08-21T00:26:44.484Z,11.43
2022-08-21T00:29:12.696Z,13.65
2022-08-21T00:31:41.296Z,13.15
2022-08-21T00:34:10.021Z,9.63
2022-08-21T00:36:38.316Z,13.18
2022-08-21T00:39:08.183Z,12.38
2022-08-21T00:41:40.220Z,12.98
2022-08-21T00:44:10.588Z,13.00
2022-08-21T00:46:39.761Z,13.55
2022-08-21T00:49:09.328Z,10.70
2022-08-21T00:51:41.907Z,12.38
2022-08-21T00:54:19.057Z,10.82
2022-08-21T00:56:54.173Z,11.48
2022-08-21T00:59:25.029Z,8.48
2022-08-21T01:01:53.174Z,13.20
2022-08-21T01:04:22.220Z,12.40
2022-08-21T01:06:50.269Z,12.43
2022-08-21T01:09:18.948Z,12.63
2022-08-21T01:11:49.439Z,12.00
2022-08-21T01:14:19.430Z,11.35
2022-08-21T01:16:50.534Z,12.48
2022-08-21T01:19:20.369Z,11.90
2022-08-21T01:21:49.903Z,9.85
2022-08-21T01:24:17.986Z,14.32
2022-08-21T01:26:46.866Z,9.13
2022-08-21T01:29:28.588Z,13.07
2022-08-21T01:31:56.706Z,8.70
2022-08-21T01:34:24.814Z,9.80
2022-08-21T01:36:54.372Z,14.38
2022-08-21T01:39:22.475Z,12.30
2022-08-21T01:41:50.706Z,13.02
2022-08-21T01:44:21.984Z,11.95
2022-08-21T01:46:50.284Z,11.32
2022-08-21T01:49:18.523Z,9.57
2022-08-21T01:51:46.610Z,9.18
2022-08-21T01:54:16.009Z,12.73
2022-08-21T01:56:48.015Z,7.68
2022-08-21T01:59:16.656Z,10.73
2022-08-21T02:01:44.918Z,9.93
2022-08-21T02:04:14.214Z,12.75
2022-08-21T02:06:42.251Z,10.98
2022-08-21T02:09:13.353Z,10.85
2022-08-21T02:11:44.641Z,14.23
2022-08-21T02:14:15.028Z,9.38
2022-08-21T02:16:44.264Z,7.88
2022-08-21T02:19:14.294Z,8.93
2022-08-21T02:21:42.502Z,8.07
2022-08-21T02:24:11.227Z,9.27
2022-08-21T02:26:39.526Z,12.40
2022-08-21T02:29:09.084Z,8.27
2022-08-21T02:31:37.527Z,11.95
2022-08-21T02:34:05.739Z,9.60
2022-08-21T02:36:34.425Z,10.98
2022-08-21T02:39:02.563Z,11.30
2022-08-21T02:41:30.591Z,12.95
2022-08-21T02:43:58.635Z,9.52
2022-08-21T02:46:28.133Z,10.65
2022-08-21T02:48:56.157Z,11.27
2022-08-21T02:51:24.733Z,9.45
2022-08-21T02:53:52.981Z,10.40
2022-08-21T02:56:23.435Z,11.48
2022-08-21T02:58:53.038Z,14.30
2022-08-21T03:01:22.804Z,12.00
2022-08-21T03:03:52.515Z,10.13
2022-08-21T03:06:23.034Z,10.95
2022-08-21T03:08:51.876Z,13.48
2022-08-21T03:11:20.153Z,11.80
2022-08-21T03:13:48.440Z,9.15
2022-08-21T03:16:16.892Z,11.48
2022-08-21T03:18:44.935Z,12.00
2022-08-21T03:21:14.883Z,12.35
2022-08-21T03:23:44.026Z,9.95
2022-08-21T03:26:12.494Z,15.45
2022-08-21T03:28:40.887Z,9.10
2022-08-21T03:31:09.711Z,11.27
2022-08-21T03:33:37.779Z,10.40
2022-08-21T03:36:09.008Z,12.02
2022-08-21T03:38:39.620Z,11.85
2022-08-21T03:41:08.389Z,10.40
2022-08-21T03:43:36.888Z,9.63
2022-08-21T03:46:07.089Z,11.63
2022-08-21T03:48:36.312Z,9.98
2022-08-21T03:51:04.534Z,19.63
2022-08-21T03:53:32.689Z,13.30
2022-08-21T03:56:02.109Z,8.48
2022-08-21T03:58:30.721Z,10.30
2022-08-21T04:01:00.970Z,7.55
2022-08-21T04:03:29.874Z,10.00
2022-08-21T04:05:58.061Z,12.55
2022-08-21T04:08:26.083Z,15.38
2022-08-21T04:10:57.318Z,8.15
2022-08-21T04:13:27.709Z,8.75
2022-08-21T04:15:55.876Z,8.23
2022-08-21T04:18:24.041Z,10.70
2022-08-21T04:20:54.310Z,12.95
2022-08-21T04:23:23.572Z,16.30
2022-08-21T04:25:52.868Z,7.88
2022-08-21T04:28:21.091Z,12.85
2022-08-21T04:30:53.020Z,7.70
2022-08-21T04:33:21.541Z,11.20
2022-08-21T04:35:50.009Z,8.90
2022-08-21T04:38:18.060Z,10.55
2022-08-21T04:40:46.289Z,12.32
2022-08-21T04:43:14.400Z,10.07
2022-08-21T04:45:44.336Z,10.10
2022-08-21T04:48:15.369Z,11.10
2022-08-21T04:50:48.555Z,8.18
2022-08-21T04:53:24.393Z,8.60
2022-08-21T04:55:54.104Z,11.60
2022-08-21T04:58:27.310Z,8.77
2022-08-21T05:00:57.843Z,11.07
2022-08-21T05:03:27.422Z,12.05
2022-08-21T05:05:55.588Z,9.13
2022-08-21T05:08:27.668Z,7.80
2022-08-21T05:11:00.330Z,8.60
2022-08-21T05:13:29.086Z,8.90
2022-08-21T05:16:00.262Z,10.80
2022-08-21T05:18:30.318Z,11.77
2022-08-21T05:20:58.517Z,9.57
2022-08-21T05:23:26.959Z,8.50
2022-08-21T05:25:56.130Z,9.05
2022-08-21T05:28:24.547Z,8.55
2022-08-21T05:30:55.455Z,7.82
2022-08-21T05:33:23.889Z,8.02
2022-08-21T05:35:57.033Z,12.32
2022-08-21T05:38:25.434Z,12.15
2022-08-21T05:40:53.520Z,8.30
2022-08-21T05:43:24.509Z,9.20
2022-08-21T05:45:55.670Z,7.00
2022-08-21T05:48:26.677Z,8.18
2022-08-21T05:50:56.430Z,7.38
2022-08-21T05:53:28.224Z,11.27
2022-08-21T05:55:56.492Z,7.72
2022-08-21T05:58:25.251Z,9.10
2022-08-21T06:00:54.390Z,9.98
2022-08-21T06:03:25.556Z,12.18
2022-08-21T06:05:56.278Z,13.57
2022-08-21T06:08:25.524Z,8.25
2022-08-21T06:10:54.894Z,6.63
2022-08-21T06:13:23.992Z,9.32
2022-08-21T06:15:52.581Z,10.43
2022-08-21T06:18:20.721Z,10.13
2022-08-21T06:20:48.859Z,9.38
2022-08-21T06:23:18.270Z,9.60
2022-08-21T06:25:47.310Z,8.52
2022-08-21T06:28:15.705Z,8.55
2022-08-21T06:30:44.244Z,8.60
2022-08-21T06:33:12.421Z,8.70
2022-08-21T06:35:41.487Z,11.48
2022-08-21T06:38:10.151Z,9.82
2022-08-21T06:40:43.999Z,11.52
2022-08-21T06:43:19.084Z,8.57
2022-08-21T06:45:47.589Z,6.93
2022-08-21T06:48:19.143Z,9.50
2022-08-21T06:50:48.641Z,9.80
2022-08-21T06:53:19.304Z,9.02
2022-08-21T06:55:50.168Z,8.95
2022-08-21T06:58:23.735Z,10.80
2022-08-21T07:00:57.493Z,8.98
2022-08-21T07:03:31.149Z,11.15
2022-08-21T07:05:59.752Z,7.88
2022-08-21T07:08:28.906Z,9.43
2022-08-21T07:11:00.952Z,8.32
2022-08-21T07:13:29.334Z,9.95
2022-08-21T07:16:01.639Z,12.30
2022-08-21T07:18:32.090Z,9.52
2022-08-21T07:21:00.190Z,9.85
2022-08-21T07:23:30.820Z,10.05
2022-08-21T07:26:01.547Z,16.75
2022-08-21T07:28:29.943Z,8.85
2022-08-21T07:31:00.126Z,8.20
2022-08-21T07:33:29.924Z,10.98
2022-08-21T07:35:58.369Z,10.63
2022-08-21T07:38:27.955Z,7.63
2022-08-21T07:40:59.833Z,7.57
2022-08-21T07:43:29.451Z,10.77
2022-08-21T07:45:58.338Z,10.73
2022-08-21T07:48:26.890Z,9.82
2022-08-21T07:50:56.227Z,10.98
2022-08-21T07:53:24.370Z,8.35
2022-08-21T07:55:52.384Z,7.95
2022-08-21T07:58:20.713Z,7.10
2022-08-21T08:00:50.478Z,7.93
2022-08-21T08:03:28.407Z,9.55
2022-08-21T08:05:58.866Z,9.93
2022-08-21T08:08:27.455Z,7.10
2022-08-21T08:10:57.622Z,7.38
2022-08-21T08:13:25.828Z,6.43
2022-08-21T08:15:55.344Z,8.70
2022-08-21T08:18:23.419Z,9.60
2022-08-21T08:20:51.554Z,13.13
2022-08-21T08:23:19.678Z,8.02
2022-08-21T08:25:47.721Z,9.40
2022-08-21T08:28:17.111Z,6.45
2022-08-21T08:30:46.309Z,7.72
2022-08-21T08:33:16.612Z,10.32
2022-08-21T08:35:46.667Z,7.07
2022-08-21T08:38:19.551Z,6.90
2022-08-21T08:40:55.236Z,7.25
2022-08-21T08:43:23.551Z,8.57
2022-08-21T08:45:54.819Z,6.28
2022-08-21T08:48:43.078Z,7.05
2022-08-21T08:51:16.901Z,7.82
2022-08-21T08:53:51.830Z,8.70
2022-08-21T08:56:28.249Z,7.97
2022-08-21T08:59:01.676Z,9.77
2022-08-21T09:01:33.454Z,9.93
2022-08-21T09:04:06.325Z,7.80
2022-08-21T09:06:45.399Z,6.50
2022-08-21T09:09:32.620Z,9.48
2022-08-21T09:12:05.988Z,9.88
2022-08-21T09:14:50.426Z,9.43
2022-08-21T09:17:36.480Z,7.03
2022-08-21T09:20:17.236Z,7.57
2022-08-21T09:22:59.488Z,10.60
2022-08-21T09:25:29.797Z,7.28
2022-08-21T09:27:57.904Z,8.55
2022-08-21T09:30:29.878Z,9.13
2022-08-21T09:32:58.231Z,7.82
2022-08-21T09:35:28.098Z,11.48
2022-08-21T09:37:59.027Z,6.85
2022-08-21T09:40:42.393Z,7.82
2022-08-21T09:43:19.703Z,7.60
2022-08-21T09:45:49.740Z,9.18
2022-08-21T09:48:22.283Z,8.27
2022-08-21T09:51:06.908Z,8.63
2022-08-21T09:53:36.278Z,9.00
2022-08-21T09:56:25.197Z,7.30
2022-08-21T09:58:54.182Z,10.02
2022-08-21T10:01:26.149Z,9.60
2022-08-21T10:04:05.076Z,8.10
2022-08-21T10:06:35.890Z,10.30
2022-08-21T10:09:15.153Z,7.25
2022-08-21T10:11:52.899Z,9.45
2022-08-21T10:14:34.412Z,6.35
2022-08-21T10:17:15.005Z,7.97
2022-08-21T10:19:52.624Z,9.77
2022-08-21T10:22:34.896Z,7.30
2022-08-21T10:25:10.746Z,6.25
2022-08-21T10:27:42.868Z,6.53
2022-08-21T10:30:14.472Z,5.55
2022-08-21T10:32:56.109Z,4.82
2022-08-21T10:35:31.345Z,8.02
2022-08-21T10:38:46.291Z,6.25
2022-08-21T10:41:19.693Z,8.90
2022-08-21T10:43:54.593Z,6.55
2022-08-21T10:46:38.693Z,8.50
2022-08-21T10:49:19.682Z,9.02
2022-08-21T10:51:56.522Z,5.28
2022-08-21T10:54:36.524Z,7.70
2022-08-21T10:57:11.426Z,6.65
2022-08-21T10:59:44.526Z,4.13
2022-08-21T11:02:20.430Z,5.10
2022-08-21T11:04:54.954Z,7.53
2022-08-21T11:07:29.904Z,6.30
2022-08-21T11:10:10.603Z,8.43
2022-08-21T11:12:45.274Z,6.13
2022-08-21T11:15:37.441Z,6.90
2022-08-21T11:18:18.314Z,8.20
2022-08-21T11:20:52.863Z,6.43
2022-08-21T11:23:30.077Z,5.15
2022-08-21T11:26:06.388Z,4.88
2022-08-21T11:28:39.594Z,7.85
2022-08-21T11:31:19.890Z,6.10
2022-08-21T11:34:03.701Z,5.53
2022-08-21T11:36:43.060Z,7.07
2022-08-21T11:39:27.800Z,4.93
2022-08-21T11:42:08.984Z,4.93
2022-08-21T11:44:50.759Z,7.10
2022-08-21T11:47:27.763Z,5.00
2022-08-21T11:50:34.042Z,5.63
2022-08-21T11:53:14.141Z,8.27
2022-08-21T11:55:47.173Z,5.35
2022-08-21T11:58:24.442Z,5.40
2022-08-21T12:00:56.313Z,5.70
2022-08-21T12:03:29.425Z,8.40
2022-08-21T12:06:00.449Z,6.60
2022-08-21T12:08:34.044Z,4.68
2022-08-21T12:11:07.014Z,4.13
2022-08-21T12:13:42.412Z,5.28
2022-08-21T12:16:16.568Z,10.98
2022-08-21T12:18:45.389Z,6.40
2022-08-21T12:21:27.838Z,5.88
2022-08-21T12:24:07.333Z,4.78
2022-08-21T12:26:37.747Z,8.95
2022-08-21T12:29:26.972Z,7.30
2022-08-21T12:32:02.394Z,4.75
2022-08-21T12:34:36.937Z,6.65
2022-08-21T12:37:16.374Z,6.13
2022-08-21T12:39:49.466Z,5.88
2022-08-21T12:42:20.615Z,7.50
2022-08-21T12:44:55.260Z,3.63
2022-08-21T12:47:31.765Z,5.07
2022-08-21T12:50:04.768Z,4.13
2022-08-21T12:52:39.509Z,5.95
2022-08-21T12:55:09.079Z,4.55
2022-08-21T12:57:38.573Z,8.10
2022-08-21T13:00:12.541Z,7.13
2022-08-21T13:02:45.391Z,6.55
2022-08-21T13:05:17.082Z,7.00
2022-08-21T13:07:48.299Z,7.10
2022-08-21T13:10:21.308Z,6.25
2022-08-21T13:12:50.307Z,4.47
2022-08-21T13:15:32.987Z,5.50
2022-08-21T13:18:03.766Z,3.30
2022-08-21T13:20:35.321Z,6.00
2022-08-21T13:23:04.751Z,3.03
2022-08-21T13:25:37.747Z,4.47
2022-08-21T13:28:09.971Z,4.05
2022-08-21T13:30:44.311Z,6.03
2022-08-21T13:33:14.906Z,3.45
2022-08-21T13:35:52.006Z,5.68
2022-08-21T13:38:27.169Z,4.88
2022-08-21T13:40:58.143Z,3.60
2022-08-21T13:43:32.637Z,3.72
2022-08-21T13:46:03.265Z,5.45
2022-08-21T13:48:36.167Z,5.15
2022-08-21T13:51:05.154Z,3.17
2022-08-21T13:53:36.587Z,2.75
2022-08-21T13:56:07.188Z,4.20
2022-08-21T13:58:44.017Z,7.10
2022-08-21T14:01:23.406Z,4.13
2022-08-21T14:03:53.970Z,3.00
2022-08-21T14:06:25.504Z,4.28
2022-08-21T14:08:57.251Z,3.38
2022-08-21T14:11:26.673Z,6.20
2022-08-21T14:14:00.971Z,3.85
2022-08-21T14:16:44.280Z,3.97
2022-08-21T14:19:22.434Z,6.05
2022-08-21T14:21:51.153Z,6.50
2022-08-21T14:24:29.422Z,4.18
2022-08-21T14:27:00.427Z,4.85
2022-08-21T14:29:34.630Z,4.28
2022-08-21T14:32:21.799Z,4.07
2022-08-21T14:34:54.679Z,8.38
2022-08-21T14:37:23.409Z,7.32
2022-08-21T14:39:51.711Z,6.00
2022-08-21T14:42:19.908Z,4.55
2022-08-21T14:44:48.138Z,5.45
2022-08-21T14:47:17.676Z,4.95
2022-08-21T14:49:45.844Z,4.10
2022-08-21T14:52:13.891Z,4.28
2022-08-21T14:54:41.956Z,4.63
2022-08-21T14:57:13.069Z,6.93
2022-08-21T14:59:41.993Z,5.15
2022-08-21T15:02:10.949Z,4.00
2022-08-21T15:04:40.455Z,4.28
2022-08-21T15:07:08.497Z,4.22
2022-08-21T15:09:36.568Z,4.38
2022-08-21T15:12:06.055Z,3.33
2022-08-21T15:14:38.108Z,4.18
2022-08-21T15:17:09.318Z,7.03
2022-08-21T15:19:38.245Z,4.30
2022-08-21T15:22:15.471Z,4.68
2022-08-21T15:24:47.521Z,3.92
2022-08-21T15:27:17.125Z,3.60
2022-08-21T15:29:45.528Z,5.78
2022-08-21T15:32:22.104Z,7.70
2022-08-21T15:34:50.219Z,4.00
2022-08-21T15:37:19.672Z,5.13
2022-08-21T15:39:53.802Z,5.57
2022-08-21T15:42:22.973Z,5.47
2022-08-21T15:44:51.118Z,5.28
2022-08-21T15:47:27.082Z,5.18
2022-08-21T15:49:55.159Z,4.25
2022-08-21T15:52:24.957Z,3.90
2022-08-21T15:54:53.530Z,6.45
2022-08-21T15:57:24.909Z,4.25
2022-08-21T15:59:56.533Z,5.93
2022-08-21T16:02:28.344Z,3.75
2022-08-21T16:04:56.566Z,5.07
2022-08-21T16:07:26.881Z,5.07
2022-08-21T16:09:55.003Z,5.05
2022-08-21T16:12:26.366Z,6.45
2022-08-21T16:14:55.179Z,4.57
2022-08-21T16:17:28.011Z,4.43
2022-08-21T16:19:56.691Z,4.13
2022-08-21T16:22:26.108Z,3.28
2022-08-21T16:25:09.097Z,3.90
2022-08-21T16:27:38.649Z,6.53
2022-08-21T16:30:09.809Z,5.80
2022-08-21T16:32:37.948Z,5.38
2022-08-21T16:35:06.709Z,4.88
2022-08-21T16:37:36.141Z,3.78
2022-08-21T16:40:04.944Z,5.78
2022-08-21T16:42:33.156Z,5.80
2022-08-21T16:45:03.308Z,4.68
2022-08-21T16:47:31.719Z,7.68
2022-08-21T16:49:59.848Z,4.18
2022-08-21T16:52:28.021Z,5.45
2022-08-21T16:54:57.607Z,4.15
2022-08-21T16:57:27.898Z,8.27
2022-08-21T16:59:56.701Z,7.97
2022-08-21T17:02:31.430Z,7.70
2022-08-21T17:04:59.458Z,8.02
2022-08-21T17:07:27.569Z,6.18
2022-08-21T17:09:57.130Z,5.53
2022-08-21T17:12:25.373Z,4.72
2022-08-21T17:14:53.457Z,8.73
2022-08-21T17:17:21.922Z,7.35
2022-08-21T17:19:49.966Z,6.93
2022-08-21T17:22:17.946Z,6.97
2022-08-21T17:24:46.013Z,7.53
2022-08-21T17:27:15.439Z,5.22
2022-08-21T17:29:43.537Z,7.65
2022-08-21T17:32:13.756Z,7.13
2022-08-21T17:34:41.941Z,4.43
2022-08-21T17:37:09.981Z,7.13
2022-08-21T17:39:38.170Z,9.75
2022-08-21T17:42:10.383Z,8.00
2022-08-21T17:44:41.408Z,6.30
2022-08-21T17:47:10.466Z,5.00
2022-08-21T17:49:38.508Z,7.28
2022-08-21T17:52:07.669Z,5.47
2022-08-21T17:54:37.215Z,4.40
2022-08-21T17:57:06.780Z,10.27
2022-08-21T17:59:36.117Z,5.07
2022-08-21T18:02:09.728Z,11.80
2022-08-21T18:04:50.393Z,9.48
2022-08-21T18:07:31.749Z,5.80
2022-08-21T18:10:01.042Z,10.23
2022-08-21T18:12:29.351Z,6.65
2022-08-21T18:14:57.662Z,7.43
2022-08-21T18:17:28.403Z,8.20
2022-08-21T18:19:59.418Z,8.15
2022-08-21T18:22:28.209Z,6.78
2022-08-21T18:24:56.310Z,11.60
2022-08-21T18:27:29.058Z,9.57
2022-08-21T18:29:59.615Z,5.70
2022-08-21T18:32:32.228Z,6.47
2022-08-21T18:35:02.425Z,12.30
2022-08-21T18:37:30.873Z,7.28
2022-08-21T18:40:00.117Z,8.23
2022-08-21T18:42:30.092Z,8.40
2022-08-21T18:45:02.119Z,8.80
2022-08-21T18:47:37.242Z,7.85
2022-08-21T18:50:06.031Z,8.07
2022-08-21T18:55:29.074Z,6.45
2022-08-21T18:57:58.749Z,7.97
2022-08-21T19:00:30.781Z,9.38
2022-08-21T19:03:02.585Z,6.97
2022-08-21T19:05:34.890Z,5.38
2022-08-21T19:08:06.219Z,7.03
2022-08-21T19:10:36.177Z,7.65
2022-08-21T19:13:07.242Z,8.05
2022-08-21T19:15:37.945Z,7.13
2022-08-21T19:18:11.697Z,12.10
2022-08-21T19:20:42.226Z,8.00
2022-08-21T19:23:14.120Z,8.40
2022-08-21T19:25:44.120Z,8.73
2022-08-21T19:28:18.229Z,6.82
2022-08-21T19:30:54.638Z,6.72
2022-08-21T19:33:29.600Z,8.40
2022-08-21T19:35:58.039Z,6.43
2022-08-21T19:38:26.957Z,10.20
2022-08-21T19:40:56.441Z,9.65
2022-08-21T19:43:25.445Z,7.78
2022-08-21T19:45:59.346Z,5.93
2022-08-21T19:48:30.234Z,7.82
2022-08-21T19:50:58.597Z,6.80
2022-08-21T19:53:27.275Z,10.25
2022-08-21T19:55:55.469Z,10.35
2022-08-21T19:58:34.294Z,7.75
2022-08-21T20:01:03.075Z,10.55
2022-08-21T20:03:32.516Z,9.93
2022-08-21T20:06:02.876Z,11.18
2022-08-21T20:08:31.992Z,12.05
2022-08-21T20:11:04.095Z,16.45
2022-08-21T20:13:33.975Z,13.98
2022-08-21T20:16:03.252Z,13.15
2022-08-21T20:18:33.749Z,9.65
2022-08-21T20:21:02.076Z,11.70
2022-08-21T20:23:34.049Z,15.07
2022-08-21T20:26:02.339Z,10.88
2022-08-21T20:28:33.925Z,13.13
2022-08-21T20:31:02.222Z,10.35
2022-08-21T20:33:33.778Z,16.13
2022-08-21T20:36:01.905Z,12.27
2022-08-21T20:38:30.061Z,13.18
2022-08-21T20:40:58.230Z,14.55
2022-08-21T20:43:28.262Z,11.90
2022-08-21T20:45:57.264Z,9.40
2022-08-21T20:48:28.398Z,15.80
2022-08-21T20:51:07.766Z,13.20
2022-08-21T20:53:44.406Z,10.32
2022-08-21T20:56:19.711Z,10.57
2022-08-21T20:58:54.454Z,10.30
2022-08-21T21:01:25.585Z,11.13
2022-08-21T21:04:02.812Z,15.07
2022-08-21T21:06:34.687Z,12.80
2022-08-21T21:09:11.168Z,13.10
2022-08-21T21:11:45.255Z,12.13
2022-08-21T21:14:22.739Z,10.73
2022-08-21T21:16:54.297Z,11.85
2022-08-21T21:19:29.466Z,16.98
2022-08-21T21:22:11.695Z,11.07
2022-08-21T21:24:52.176Z,10.60
2022-08-21T21:27:28.701Z,15.88
2022-08-21T21:30:12.456Z,11.73
2022-08-21T21:32:42.754Z,13.20
2022-08-21T21:35:15.366Z,14.43
2022-08-21T21:37:52.681Z,11.60
2022-08-21T21:40:42.308Z,13.05
2022-08-21T21:43:22.612Z,11.68
2022-08-21T21:46:08.725Z,10.88
2022-08-21T21:48:55.656Z,9.77
2022-08-21T21:51:46.246Z,13.13
2022-08-21T21:54:31.867Z,8.98
2022-08-21T21:57:10.131Z,10.60
2022-08-21T21:59:52.290Z,11.38
2022-08-21T22:02:33.888Z,11.43
2022-08-21T22:05:06.612Z,10.15
2022-08-21T22:07:40.843Z,10.25
2022-08-21T22:13:26.172Z,15.75
2022-08-21T22:15:55.100Z,10.95
2022-08-21T22:18:27.527Z,8.63
2022-08-21T22:21:00.085Z,11.48
2022-08-21T22:23:31.723Z,8.77
2022-08-21T22:26:06.287Z,9.45
2022-08-21T22:28:39.086Z,10.45
2022-08-21T22:31:19.604Z,13.13
2022-08-21T22:34:05.156Z,9.27
2022-08-21T22:36:36.574Z,11.07
2022-08-21T22:39:08.292Z,11.50
2022-08-21T22:41:42.467Z,11.90
2022-08-21T22:44:21.816Z,9.27
2022-08-21T22:46:52.833Z,9.55
2022-08-21T22:49:32.999Z,9.05
2022-08-21T22:52:11.666Z,8.63
2022-08-21T22:54:43.209Z,9.82
2022-08-21T22:57:24.783Z,10.77
2022-08-21T22:59:57.354Z,10.20
2022-08-21T23:02:36.402Z,13.95
2022-08-21T23:05:16.327Z,10.80
2022-08-21T23:07:49.797Z,9.82
2022-08-21T23:10:22.270Z,13.50
2022-08-21T23:13:01.983Z,11.57
2022-08-21T23:15:36.854Z,11.65
2022-08-21T23:18:15.111Z,10.93
2022-08-21T23:20:56.468Z,13.93
2022-08-21T23:23:27.972Z,9.48
2022-08-21T23:26:19.647Z,9.73
2022-08-21T23:29:24.807Z,9.63
2022-08-21T23:32:02.678Z,12.48
2022-08-21T23:34:42.669Z,11.57
2022-08-21T23:37:48.407Z,10.57
2022-08-21T23:40:38.027Z,13.77
2022-08-21T23:43:26.858Z,11.82
2022-08-21T23:46:15.861Z,12.00
2022-08-21T23:48:54.706Z,11.80
2022-08-21T23:51:41.242Z,10.85
2022-08-21T23:54:18.945Z,12.15
2022-08-21T23:57:08.165Z,11.85
